Time;durP1;ratioP1;P1;durP2;ratioP2;P2;SDS_P1;SDS_P2;PMS_P1;PMS_P2;Temp;Humidity;BMP_temperature;BMP_pressure;BME280_temperature;BME280_humidity;BME280_pressure;Samples;Min_cycle;Max_cycle;Signal;HPM_P1;HPM_P2
2023/08/02 00:00:50;;;;;;;2.40;1.15;;;;;;;16.48;100.00;97550.75;4115320;28;20695;-47
2023/08/02 00:02:54;;;;;;;3.00;1.40;;;;;;;16.45;100.00;97556.09;4116510;28;20219;-47
2023/08/02 00:04:56;;;;;;;3.20;1.65;;;;;;;16.47;100.00;97560.16;4125215;28;20205;-47
2023/08/02 00:06:58;;;;;;;4.05;1.77;;;;;;;16.40;100.00;97545.16;4135902;28;20664;-47
2023/08/02 00:09:00;;;;;;;1.70;1.38;;;;;;;16.56;100.00;97546.44;4123386;28;20260;-47
2023/08/02 00:11:03;;;;;;;2.47;1.50;;;;;;;16.50;100.00;97540.19;4126603;28;20238;-46
2023/08/02 00:13:04;;;;;;;3.28;1.65;;;;;;;16.43;100.00;97534.28;4105515;28;20599;-47
2023/08/02 00:15:06;;;;;;;3.47;1.60;;;;;;;16.37;100.00;97521.69;4123762;28;20217;-47
2023/08/02 00:17:08;;;;;;;2.83;2.25;;;;;;;16.43;100.00;97526.00;4134839;28;20234;-47
2023/08/02 00:19:10;;;;;;;2.72;1.35;;;;;;;16.38;100.00;97515.09;4116035;28;20211;-47
2023/08/02 00:21:12;;;;;;;2.45;1.40;;;;;;;16.49;100.00;97510.94;4117005;28;20234;-47
2023/08/02 00:23:14;;;;;;;2.55;2.35;;;;;;;16.33;100.00;97511.59;4125761;28;20216;-47
2023/08/02 00:25:16;;;;;;;3.08;1.73;;;;;;;16.30;100.00;97521.31;4117821;28;20217;-47
2023/08/02 00:27:17;;;;;;;1.60;1.13;;;;;;;16.28;100.00;97528.25;4118626;28;20613;-47
2023/08/02 00:29:19;;;;;;;6.13;1.52;;;;;;;16.33;100.00;97537.28;4128057;28;20274;-46
2023/08/02 00:31:21;;;;;;;2.70;1.52;;;;;;;16.31;100.00;97535.94;4121946;28;20237;-47
2023/08/02 00:33:23;;;;;;;3.78;1.65;;;;;;;16.31;100.00;97544.22;4124409;28;20209;-46
2023/08/02 00:35:24;;;;;;;5.55;1.30;;;;;;;16.27;100.00;97530.22;4123040;28;21204;-46
2023/08/02 00:37:26;;;;;;;3.53;1.60;;;;;;;16.29;100.00;97529.94;4124452;28;20685;-46
2023/08/02 00:39:28;;;;;;;2.25;1.77;;;;;;;16.26;100.00;97523.06;4116078;28;20772;-47
2023/08/02 00:41:30;;;;;;;3.28;1.65;;;;;;;16.32;100.00;97524.59;4122217;28;20235;-47
2023/08/02 00:43:45;;;;;;;3.45;1.35;;;;;;;16.31;100.00;97511.94;4126845;28;20264;-47
2023/08/02 00:45:47;;;;;;;4.38;1.40;;;;;;;16.32;100.00;97507.19;4116096;28;20199;-47
2023/08/02 00:47:49;;;;;;;2.13;1.35;;;;;;;16.31;100.00;97500.06;4119138;28;20215;-47
2023/08/02 00:49:51;;;;;;;1.40;1.30;;;;;;;16.34;100.00;97500.25;4109348;28;20310;-47
2023/08/02 00:51:53;;;;;;;2.38;1.52;;;;;;;16.35;100.00;97507.41;4120298;28;20234;-47
2023/08/02 00:53:55;;;;;;;1.98;1.42;;;;;;;16.35;100.00;97501.88;4117897;28;20656;-48
2023/08/02 00:55:57;;;;;;;3.72;1.70;;;;;;;16.35;100.00;97506.59;4132165;28;20260;-47
2023/08/02 00:57:59;;;;;;;3.50;1.92;;;;;;;16.40;100.00;97500.97;4117632;28;20269;-48
2023/08/02 01:00:01;;;;;;;2.88;1.38;;;;;;;16.41;100.00;97500.66;4108362;28;20682;-47
2023/08/02 01:02:04;;;;;;;3.28;1.50;;;;;;;16.43;100.00;97498.38;4118858;28;20237;-47
2023/08/02 01:04:06;;;;;;;3.53;1.50;;;;;;;16.37;100.00;97499.59;4120629;28;20202;-47
2023/08/02 01:06:23;;;;;;;3.35;1.45;;;;;;;16.38;100.00;97501.31;4133026;28;20328;-47
2023/08/02 01:08:33;;;;;;;1.70;1.60;;;;;;;16.36;100.00;97497.97;4116657;28;20996;-47
2023/08/02 01:10:50;;;;;;;1.45;1.23;;;;;;;16.40;100.00;97500.97;4119069;28;20226;-48
2023/08/02 01:12:54;;;;;;;2.45;1.25;;;;;;;16.38;100.00;97501.31;4117318;28;20215;-46
2023/08/02 01:14:58;;;;;;;2.60;1.50;;;;;;;16.43;100.00;97497.59;4125161;28;20304;-48
2023/08/02 01:17:01;;;;;;;2.55;1.35;;;;;;;16.41;100.00;97495.13;4119414;28;20214;-47
2023/08/02 01:19:09;;;;;;;3.13;1.50;;;;;;;16.45;100.00;97487.88;4122113;28;20215;-48
2023/08/02 01:21:11;;;;;;;3.75;1.60;;;;;;;16.38;100.00;97487.50;4125860;28;20230;-47
2023/08/02 01:23:13;;;;;;;1.90;1.20;;;;;;;16.42;100.00;97482.97;4116193;28;20207;-47
2023/08/02 01:25:15;;;;;;;3.35;2.00;;;;;;;16.49;100.00;97475.06;4114683;28;20293;-47
2023/08/02 01:27:21;;;;;;;1.67;1.58;;;;;;;16.48;100.00;97472.59;4104284;28;20206;-47
2023/08/02 01:29:23;;;;;;;1.85;1.40;;;;;;;16.43;100.00;97481.81;4127206;28;20211;-47
2023/08/02 01:31:25;;;;;;;4.93;1.30;;;;;;;16.47;100.00;97471.78;4103016;28;20235;-46
2023/08/02 01:33:27;;;;;;;1.50;1.38;;;;;;;16.46;100.00;97467.41;4115683;28;20210;-47
2023/08/02 01:35:29;;;;;;;6.90;1.85;;;;;;;16.44;100.00;97466.88;4120161;28;20213;-47
2023/08/02 01:37:34;;;;;;;2.33;1.50;;;;;;;16.46;100.00;97475.69;4106650;28;20231;-47
2023/08/02 01:39:36;;;;;;;4.70;1.50;;;;;;;16.44;100.00;97472.41;4104436;28;20219;-47
2023/08/02 01:41:38;;;;;;;3.28;1.20;;;;;;;16.42;100.00;97477.44;4125394;28;20234;-47
2023/08/02 01:43:39;;;;;;;2.30;1.30;;;;;;;16.41;100.00;97469.44;4126074;28;20217;-47
2023/08/02 01:45:41;;;;;;;3.28;1.75;;;;;;;16.40;100.00;97460.38;4121339;28;20716;-47
2023/08/02 01:47:43;;;;;;;3.85;1.98;;;;;;;16.39;100.00;97444.09;4122659;28;20202;-47
2023/08/02 01:49:45;;;;;;;1.98;1.80;;;;;;;16.35;100.00;97430.09;4112182;28;21064;-47
2023/08/02 01:51:46;;;;;;;2.08;1.50;;;;;;;16.36;100.00;97415.13;4122008;28;20695;-47
2023/08/02 01:53:49;;;;;;;3.08;1.60;;;;;;;16.34;100.00;97405.53;4122357;28;20259;-46
2023/08/02 01:55:50;;;;;;;2.85;2.03;;;;;;;16.39;100.00;97414.56;4122955;28;20311;-47
2023/08/02 01:57:52;;;;;;;4.32;2.17;;;;;;;16.39;100.00;97425.59;4125607;28;20272;-48
2023/08/02 01:59:54;;;;;;;1.90;1.58;;;;;;;16.33;100.00;97421.31;4120356;28;20210;-45
2023/08/02 02:01:56;;;;;;;2.58;1.50;;;;;;;16.38;100.00;97426.75;4128580;28;20633;-45
2023/08/02 02:03:57;;;;;;;2.67;1.50;;;;;;;16.39;100.00;97422.84;4123936;28;20218;-45
2023/08/02 02:05:59;;;;;;;2.90;1.85;;;;;;;16.41;100.00;97417.00;4129491;28;20612;-45
2023/08/02 02:08:01;;;;;;;1.85;1.60;;;;;;;16.41;100.00;97412.28;4129339;28;20217;-45
2023/08/02 02:10:03;;;;;;;3.25;1.52;;;;;;;16.42;100.00;97402.06;4112378;28;20848;-45
2023/08/02 02:12:05;;;;;;;2.33;1.73;;;;;;;16.44;100.00;97395.09;4117935;28;20309;-45
2023/08/02 02:14:09;;;;;;;2.20;1.70;;;;;;;16.39;100.00;97400.75;4118701;28;20676;-45
2023/08/02 02:16:10;;;;;;;2.60;1.85;;;;;;;16.40;100.00;97398.78;4124073;28;20214;-45
2023/08/02 02:18:12;;;;;;;4.40;2.00;;;;;;;16.39;100.00;97398.00;4118634;28;20214;-45
2023/08/02 02:20:14;;;;;;;3.35;1.48;;;;;;;16.34;100.00;97384.28;4117398;28;20213;-44
2023/08/02 02:22:16;;;;;;;5.20;1.80;;;;;;;16.31;100.00;97379.41;4103371;28;20208;-45
2023/08/02 02:24:17;;;;;;;2.88;1.65;;;;;;;16.30;100.00;97372.22;4127102;28;20218;-45
2023/08/02 02:26:19;;;;;;;3.55;1.90;;;;;;;16.28;100.00;97363.44;4119874;28;20266;-44
2023/08/02 02:28:21;;;;;;;3.88;1.50;;;;;;;16.34;100.00;97358.59;4116046;28;20211;-45
2023/08/02 02:30:23;;;;;;;2.42;1.77;;;;;;;16.29;100.00;97342.97;4113873;28;20337;-45
2023/08/02 02:32:24;;;;;;;3.30;1.85;;;;;;;16.27;100.00;97350.78;4128028;28;20264;-46
2023/08/02 02:34:26;;;;;;;2.60;1.63;;;;;;;16.30;100.00;97347.38;4119574;28;20285;-46
2023/08/02 02:36:28;;;;;;;2.45;1.30;;;;;;;16.35;100.00;97341.72;4122762;28;20214;-45
2023/08/02 02:38:31;;;;;;;3.20;1.60;;;;;;;16.30;100.00;97344.59;4122895;28;20241;-45
2023/08/02 02:40:33;;;;;;;4.47;1.73;;;;;;;16.23;100.00;97348.97;4112367;28;20932;-45
2023/08/02 02:42:38;;;;;;;4.80;1.73;;;;;;;16.27;100.00;97339.72;4102721;28;20211;-45
2023/08/02 02:44:43;;;;;;;3.03;1.55;;;;;;;16.36;100.00;97340.59;4127438;28;20614;-45
2023/08/02 02:46:45;;;;;;;1.90;1.25;;;;;;;16.29;100.00;97331.94;4120893;28;20221;-45
2023/08/02 02:48:47;;;;;;;2.75;1.88;;;;;;;16.37;100.00;97331.16;4108008;28;20298;-45
2023/08/02 02:50:48;;;;;;;2.92;1.73;;;;;;;16.39;100.00;97336.41;4122880;28;20278;-47
2023/08/02 02:52:50;;;;;;;2.55;1.70;;;;;;;16.39;100.00;97326.19;4121622;28;20207;-45
2023/08/02 02:54:52;;;;;;;5.22;2.17;;;;;;;16.34;100.00;97323.53;4127599;28;20285;-45
2023/08/02 02:56:54;;;;;;;4.22;1.70;;;;;;;16.37;100.00;97322.09;4118972;28;20210;-45
2023/08/02 02:58:55;;;;;;;3.47;1.73;;;;;;;16.32;100.00;97313.94;4126533;28;20221;-45
2023/08/02 03:00:57;;;;;;;2.15;1.95;;;;;;;16.34;100.00;97300.63;4125493;28;20229;-45
2023/08/02 03:02:59;;;;;;;2.50;1.92;;;;;;;16.35;100.00;97294.78;4117615;28;20210;-45
2023/08/02 03:05:01;;;;;;;2.25;1.40;;;;;;;16.36;100.00;97296.41;4118218;28;20217;-47
2023/08/02 03:07:02;;;;;;;2.42;1.40;;;;;;;16.34;100.00;97284.88;4109599;28;20218;-48
2023/08/02 03:09:04;;;;;;;2.95;1.42;;;;;;;16.35;100.00;97274.66;4127487;28;20256;-45
2023/08/02 03:11:09;;;;;;;4.07;1.70;;;;;;;16.41;100.00;97277.00;4110432;28;20293;-45
2023/08/02 03:13:11;;;;;;;3.85;1.65;;;;;;;16.38;100.00;97283.16;4121403;28;20211;-45
2023/08/02 03:15:12;;;;;;;3.30;1.80;;;;;;;16.43;100.00;97271.97;4116934;28;20221;-45
2023/08/02 03:17:14;;;;;;;2.28;1.70;;;;;;;16.46;100.00;97267.75;4128205;28;20206;-46
2023/08/02 03:19:16;;;;;;;5.43;1.80;;;;;;;16.47;100.00;97272.97;4120267;28;20214;-46
2023/08/02 03:21:18;;;;;;;5.13;2.28;;;;;;;16.38;100.00;97272.13;4126818;28;20233;-47
2023/08/02 03:23:19;;;;;;;2.90;1.80;;;;;;;16.43;100.00;97269.19;4118617;28;20222;-46
2023/08/02 03:25:21;;;;;;;2.50;1.50;;;;;;;16.48;100.00;97271.00;4122314;28;20207;-46
2023/08/02 03:27:23;;;;;;;2.38;1.60;;;;;;;16.46;100.00;97264.97;4118248;28;20297;-45
2023/08/02 03:29:25;;;;;;;3.20;1.92;;;;;;;16.51;100.00;97273.13;4102412;28;20208;-45
2023/08/02 03:31:27;;;;;;;2.40;1.60;;;;;;;16.50;100.00;97261.25;4132773;28;20233;-46
2023/08/02 03:33:29;;;;;;;2.78;1.88;;;;;;;16.50;100.00;97272.31;4118590;28;20297;-45
2023/08/02 03:35:31;;;;;;;2.80;1.60;;;;;;;16.59;100.00;97264.06;4120618;28;20211;-46
2023/08/02 03:37:32;;;;;;;2.80;1.85;;;;;;;16.60;100.00;97271.22;4119055;28;20568;-45
2023/08/02 03:39:34;;;;;;;4.10;1.75;;;;;;;16.59;100.00;97264.91;4126684;28;20210;-45
2023/08/02 03:41:37;;;;;;;4.55;1.95;;;;;;;16.63;100.00;97270.59;4102277;28;20286;-45
2023/08/02 03:43:38;;;;;;;2.85;1.85;;;;;;;16.55;100.00;97269.41;4121466;28;20218;-45
2023/08/02 03:45:40;;;;;;;3.28;2.00;;;;;;;16.49;100.00;97258.84;4102897;28;20431;-45
2023/08/02 03:47:42;;;;;;;3.05;2.03;;;;;;;16.53;100.00;97248.78;4131978;28;20960;-44
2023/08/02 03:49:43;;;;;;;2.30;1.52;;;;;;;16.50;100.00;97255.75;4119119;28;20245;-46
2023/08/02 03:51:46;;;;;;;1.95;1.70;;;;;;;16.41;100.00;97246.63;4106115;28;20234;-46
2023/08/02 03:53:49;;;;;;;3.03;2.30;;;;;;;16.41;100.00;97248.56;4118120;28;20297;-45
2023/08/02 03:55:51;;;;;;;4.22;1.73;;;;;;;16.34;100.00;97246.22;4120549;28;20216;-45
2023/08/02 03:57:52;;;;;;;2.85;1.83;;;;;;;16.40;100.00;97245.00;4108810;28;20250;-45
2023/08/02 03:59:54;;;;;;;2.63;2.15;;;;;;;16.33;100.00;97241.84;4117487;28;20636;-46
2023/08/02 04:01:56;;;;;;;10.23;1.88;;;;;;;16.35;100.00;97244.28;4120408;28;20238;-45
2023/08/02 04:04:00;;;;;;;2.15;1.83;;;;;;;16.38;100.00;97236.22;4120888;28;20262;-46
2023/08/02 04:06:02;;;;;;;3.13;1.60;;;;;;;16.36;100.00;97234.88;4117321;28;20780;-45
2023/08/02 04:08:04;;;;;;;2.42;2.17;;;;;;;16.28;100.00;97238.38;4126669;28;20285;-45
2023/08/02 04:10:07;;;;;;;2.70;1.85;;;;;;;16.26;100.00;97229.63;4126624;28;20210;-45
2023/08/02 04:12:08;;;;;;;4.95;2.08;;;;;;;16.25;100.00;97231.59;4117831;28;20296;-46
2023/08/02 04:14:10;;;;;;;4.50;2.13;;;;;;;16.24;100.00;97218.09;4126178;28;20218;-45
2023/08/02 04:16:12;;;;;;;6.22;2.30;;;;;;;16.17;100.00;97212.22;4117908;28;20225;-46
2023/08/02 04:18:14;;;;;;;2.38;2.00;;;;;;;16.19;100.00;97216.28;4119414;28;20270;-44
2023/08/02 04:20:15;;;;;;;2.53;2.00;;;;;;;16.17;100.00;97223.25;4125717;28;20261;-45
2023/08/02 04:22:17;;;;;;;2.55;2.15;;;;;;;16.15;100.00;97214.47;4117512;28;20211;-45
2023/08/02 04:24:19;;;;;;;6.13;2.10;;;;;;;16.17;100.00;97214.97;4119588;28;20217;-45
2023/08/02 04:26:20;;;;;;;9.52;2.03;;;;;;;16.18;100.00;97216.59;4124706;28;20257;-45
2023/08/02 04:28:22;;;;;;;3.17;2.05;;;;;;;16.15;100.00;97220.81;4118244;28;20347;-46
2023/08/02 04:30:24;;;;;;;2.17;1.98;;;;;;;16.19;100.00;97221.81;4127558;28;20232;-45
2023/08/02 04:32:26;;;;;;;3.28;2.03;;;;;;;16.09;100.00;97216.53;4119624;28;20225;-46
2023/08/02 04:34:28;;;;;;;3.10;2.80;;;;;;;16.10;100.00;97217.38;4118113;28;20266;-46
2023/08/02 04:36:31;;;;;;;3.35;1.92;;;;;;;16.02;100.00;97220.91;4120715;28;20221;-45
2023/08/02 04:38:32;;;;;;;2.55;1.75;;;;;;;15.99;100.00;97216.00;4120260;28;20273;-46
2023/08/02 04:40:38;;;;;;;2.65;1.92;;;;;;;15.93;100.00;97215.31;4109466;28;20223;-46
2023/08/02 04:42:41;;;;;;;2.05;1.95;;;;;;;15.96;100.00;97200.09;4120779;28;20226;-46
2023/08/02 04:44:42;;;;;;;4.35;2.33;;;;;;;16.01;100.00;97199.94;4118408;28;20245;-46
2023/08/02 04:46:44;;;;;;;3.65;2.30;;;;;;;15.93;100.00;97200.72;4120143;28;20206;-46
2023/08/02 04:48:46;;;;;;;2.17;1.70;;;;;;;16.02;100.00;97199.63;4126815;28;20297;-45
2023/08/02 04:50:49;;;;;;;2.03;1.83;;;;;;;16.00;100.00;97185.34;4125398;28;20234;-46
2023/08/02 04:52:50;;;;;;;3.22;2.03;;;;;;;15.93;100.00;97190.50;4125925;28;20650;-45
2023/08/02 04:54:52;;;;;;;2.70;1.60;;;;;;;15.91;100.00;97184.47;4117343;28;20676;-46
2023/08/02 04:56:54;;;;;;;4.10;1.85;;;;;;;15.99;100.00;97183.72;4125629;28;20245;-45
2023/08/02 04:58:56;;;;;;;3.75;1.92;;;;;;;15.87;100.00;97175.22;4104258;28;20241;-46
2023/08/02 05:01:01;;;;;;;2.35;2.15;;;;;;;15.91;100.00;97175.38;4125483;28;20260;-47
2023/08/02 05:03:03;;;;;;;3.22;1.88;;;;;;;15.87;100.00;97166.94;4125319;28;20234;-46
2023/08/02 05:05:05;;;;;;;2.80;1.70;;;;;;;15.93;100.00;97168.44;4116526;28;20265;-46
2023/08/02 05:07:07;;;;;;;2.65;1.90;;;;;;;15.86;100.00;97173.59;4118769;28;20634;-45
2023/08/02 05:09:09;;;;;;;2.50;1.70;;;;;;;15.85;100.00;97166.44;4124415;28;20202;-46
2023/08/02 05:11:11;;;;;;;1.98;1.58;;;;;;;15.95;100.00;97155.13;4115313;28;20253;-46
2023/08/02 05:13:12;;;;;;;1.98;1.65;;;;;;;15.94;100.00;97163.69;4125748;28;20210;-46
2023/08/02 05:15:14;;;;;;;2.78;1.88;;;;;;;15.89;100.00;97159.13;4116848;28;20660;-46
2023/08/02 05:17:16;;;;;;;2.35;1.63;;;;;;;15.92;100.00;97158.53;4118877;28;20688;-47
2023/08/02 05:19:18;;;;;;;2.85;1.95;;;;;;;15.92;100.00;97158.53;4131543;28;20265;-46
2023/08/02 05:21:19;;;;;;;3.83;1.80;;;;;;;15.87;100.00;97155.06;4116305;28;20238;-45
2023/08/02 05:23:21;;;;;;;1.92;1.80;;;;;;;15.81;100.00;97159.09;4121301;28;20708;-45
2023/08/02 05:25:29;;;;;;;1.55;1.45;;;;;;;15.89;100.00;97156.38;4121145;28;20306;-46
2023/08/02 05:27:31;;;;;;;2.10;1.88;;;;;;;15.87;100.00;97144.88;4130037;28;20270;-46
2023/08/02 05:29:32;;;;;;;2.55;2.35;;;;;;;15.90;100.00;97144.22;4115325;28;20215;-46
2023/08/02 05:31:34;;;;;;;2.20;2.00;;;;;;;15.96;100.00;97145.69;4120444;28;20265;-46
2023/08/02 05:33:36;;;;;;;2.55;2.00;;;;;;;15.93;100.00;97146.34;4121300;28;20273;-47
2023/08/02 05:35:38;;;;;;;2.60;1.60;;;;;;;15.84;100.00;97148.22;4125031;28;20845;-46
2023/08/02 05:37:39;;;;;;;1.73;1.45;;;;;;;15.77;100.00;97142.38;4120825;28;20219;-46
2023/08/02 05:39:41;;;;;;;2.50;1.90;;;;;;;15.83;100.00;97140.31;4120806;28;20679;-46
2023/08/02 05:41:43;;;;;;;1.80;1.70;;;;;;;15.79;100.00;97129.09;4117731;28;20239;-46
2023/08/02 05:43:45;;;;;;;1.58;1.48;;;;;;;15.76;100.00;97118.66;4128000;28;20234;-46
2023/08/02 05:45:52;;;;;;;2.17;1.95;;;;;;;15.70;100.00;97108.09;4122006;28;20617;-45
2023/08/02 05:47:54;;;;;;;4.50;1.50;;;;;;;15.69;100.00;97095.44;4120714;28;20204;-45
2023/08/02 05:49:56;;;;;;;1.88;1.67;;;;;;;15.72;100.00;97100.31;4113462;28;20207;-46
2023/08/02 05:51:58;;;;;;;4.13;1.50;;;;;;;15.73;100.00;97090.91;4128205;28;20222;-47
2023/08/02 05:53:59;;;;;;;2.60;1.85;;;;;;;15.82;100.00;97089.81;4120462;28;20662;-45
2023/08/02 05:56:02;;;;;;;1.65;1.42;;;;;;;15.85;100.00;97077.34;4120654;28;20218;-46
2023/08/02 05:58:03;;;;;;;2.75;1.65;;;;;;;15.85;100.00;97072.66;4136141;28;20226;-45
2023/08/02 06:00:07;;;;;;;2.90;1.70;;;;;;;15.89;100.00;97067.31;4135645;28;20774;-45
2023/08/02 06:02:08;;;;;;;2.33;1.83;;;;;;;15.83;100.00;97068.59;4121114;28;20230;-48
2023/08/02 06:04:10;;;;;;;1.70;1.52;;;;;;;15.82;100.00;97062.22;4121875;28;20211;-47
2023/08/02 06:06:12;;;;;;;1.90;1.30;;;;;;;15.83;100.00;97061.09;4123692;28;20213;-48
2023/08/02 06:08:14;;;;;;;2.30;1.30;;;;;;;15.82;100.00;97056.72;4108814;28;20579;-47
2023/08/02 06:10:16;;;;;;;1.50;1.10;;;;;;;15.79;100.00;97051.84;4128287;28;20625;-48
2023/08/02 06:12:18;;;;;;;1.20;1.10;;;;;;;15.90;100.00;97047.66;4121756;28;20207;-47
2023/08/02 06:14:19;;;;;;;1.10;1.00;;;;;;;15.83;100.00;97041.78;4121978;28;20217;-47
2023/08/02 06:16:22;;;;;;;1.90;1.30;;;;;;;15.92;100.00;97050.09;4122162;28;20226;-45
2023/08/02 06:18:24;;;;;;;1.65;1.45;;;;;;;15.88;100.00;97033.38;4119427;28;20218;-44
2023/08/02 06:20:26;;;;;;;1.83;1.38;;;;;;;15.84;100.00;97026.84;4128595;28;20221;-45
2023/08/02 06:22:29;;;;;;;1.75;1.65;;;;;;;15.81;100.00;97016.47;4127546;28;20610;-44
2023/08/02 06:24:30;;;;;;;1.33;1.10;;;;;;;15.79;100.00;97018.75;4119396;28;20289;-43
2023/08/02 06:26:32;;;;;;;1.30;1.02;;;;;;;15.84;100.00;97004.00;4119666;28;20211;-44
2023/08/02 06:28:34;;;;;;;1.40;1.08;;;;;;;15.87;100.00;97006.94;4112838;28;20664;-47
2023/08/02 06:30:35;;;;;;;1.30;1.20;;;;;;;15.87;100.00;97000.59;4121673;28;20230;-45
2023/08/02 06:32:37;;;;;;;1.02;0.85;;;;;;;15.87;100.00;96992.31;4118124;28;20214;-46
2023/08/02 06:34:39;;;;;;;1.30;1.20;;;;;;;15.83;100.00;96980.31;4119129;28;20235;-47
2023/08/02 06:36:41;;;;;;;1.38;1.10;;;;;;;15.85;100.00;96976.09;4120432;28;20206;-46
2023/08/02 06:38:45;;;;;;;1.00;1.00;;;;;;;15.81;100.00;96969.59;4127516;28;20209;-46
2023/08/02 06:40:47;;;;;;;1.27;0.90;;;;;;;15.84;100.00;96971.69;4119660;28;20239;-46
2023/08/02 06:42:48;;;;;;;1.60;1.20;;;;;;;15.89;100.00;96963.28;4120099;28;20249;-47
2023/08/02 06:44:50;;;;;;;1.20;1.10;;;;;;;15.90;100.00;96958.56;4117972;28;20226;-47
2023/08/02 06:46:52;;;;;;;1.02;0.90;;;;;;;15.88;100.00;96956.13;4121244;28;20217;-46
2023/08/02 06:48:54;;;;;;;1.10;1.00;;;;;;;15.89;100.00;96955.00;4121468;28;20247;-46
2023/08/02 06:50:56;;;;;;;0.85;0.85;;;;;;;15.99;100.00;96943.66;4123176;28;20237;-49
2023/08/02 06:52:58;;;;;;;1.38;0.80;;;;;;;16.05;100.00;96944.31;4111772;28;20207;-48
2023/08/02 06:54:59;;;;;;;0.93;0.90;;;;;;;16.06;100.00;96935.72;4120298;28;20731;-46
2023/08/02 06:57:01;;;;;;;1.05;0.70;;;;;;;16.00;100.00;96942.53;4126001;28;20277;-46
2023/08/02 06:59:03;;;;;;;0.70;0.65;;;;;;;16.02;100.00;96948.53;4128566;28;20229;-47
2023/08/02 07:01:12;;;;;;;1.10;0.85;;;;;;;16.03;100.00;96936.34;4135155;28;20218;-47
2023/08/02 07:03:13;;;;;;;1.00;0.90;;;;;;;16.13;100.00;96941.56;4133922;28;20252;-47
2023/08/02 07:05:15;;;;;;;0.77;0.77;;;;;;;16.20;100.00;96930.84;4121542;28;20209;-47
2023/08/02 07:07:17;;;;;;;0.70;0.70;;;;;;;16.24;100.00;96931.81;4117908;28;20252;-47
2023/08/02 07:09:19;;;;;;;0.88;0.70;;;;;;;16.25;100.00;96927.13;4118753;28;20739;-46
2023/08/02 07:11:20;;;;;;;0.40;0.40;;;;;;;16.34;100.00;96939.78;4127429;28;20238;-46
2023/08/02 07:13:37;;;;;;;0.63;0.63;;;;;;;16.33;100.00;96935.41;4127249;28;20686;-47
2023/08/02 07:15:39;;;;;;;0.77;0.52;;;;;;;16.41;100.00;96931.84;4125172;28;20222;-47
2023/08/02 07:17:41;;;;;;;0.85;0.68;;;;;;;16.46;100.00;96934.44;4106023;28;20218;-47
2023/08/02 07:19:43;;;;;;;0.50;0.50;;;;;;;16.42;100.00;96924.38;4126324;28;20324;-47
2023/08/02 07:21:45;;;;;;;0.60;0.40;;;;;;;16.46;100.00;96909.59;4116842;28;20226;-47
2023/08/02 07:23:47;;;;;;;0.60;0.40;;;;;;;16.49;100.00;96910.91;4128057;28;20210;-46
2023/08/02 07:25:49;;;;;;;0.65;0.60;;;;;;;16.40;100.00;96913.66;4126587;28;20751;-47
2023/08/02 07:27:50;;;;;;;0.50;0.50;;;;;;;16.39;100.00;96917.56;4127285;28;20218;-46
2023/08/02 07:29:52;;;;;;;0.50;0.50;;;;;;;16.39;100.00;96894.66;4127892;28;20216;-47
2023/08/02 07:31:54;;;;;;;0.47;0.45;;;;;;;16.42;100.00;96889.28;4127627;28;20699;-47
2023/08/02 07:33:56;;;;;;;0.60;0.50;;;;;;;16.48;100.00;96896.25;4120295;28;20233;-47
2023/08/02 07:35:58;;;;;;;0.50;0.50;;;;;;;16.44;100.00;96900.00;4126473;28;20209;-47
2023/08/02 07:37:59;;;;;;;0.40;0.40;;;;;;;16.42;100.00;96894.81;4127268;28;20696;-47
2023/08/02 07:40:01;;;;;;;0.40;0.40;;;;;;;16.42;100.00;96878.25;4121734;28;20227;-46
2023/08/02 07:42:04;;;;;;;0.40;0.40;;;;;;;16.48;100.00;96876.94;4116783;28;20273;-45
2023/08/02 07:44:05;;;;;;;0.43;0.43;;;;;;;16.56;100.00;96875.31;4114708;28;20897;-48
2023/08/02 07:46:21;;;;;;;0.30;0.30;;;;;;;16.56;100.00;96867.81;4120656;28;20311;-47
2023/08/02 07:48:23;;;;;;;0.65;0.43;;;;;;;16.65;100.00;96865.88;4124480;28;20225;-45
2023/08/02 07:50:24;;;;;;;0.30;0.30;;;;;;;16.71;100.00;96853.50;4124882;28;20201;-44
2023/08/02 07:52:26;;;;;;;0.50;0.50;;;;;;;16.66;100.00;96856.44;4128237;28;20218;-45
2023/08/02 07:54:28;;;;;;;0.82;0.80;;;;;;;16.69;100.00;96872.34;4120069;28;20214;-44
2023/08/02 07:56:37;;;;;;;0.30;0.30;;;;;;;16.75;100.00;96878.53;4119214;28;20202;-43
2023/08/02 07:58:39;;;;;;;0.35;0.35;;;;;;;16.72;100.00;96870.88;4122119;28;20213;-44
2023/08/02 08:00:40;;;;;;;0.30;0.30;;;;;;;16.66;100.00;96864.72;4125318;28;20296;-43
2023/08/02 08:02:42;;;;;;;0.30;0.30;;;;;;;16.69;100.00;96853.00;4127036;28;20214;-45
2023/08/02 08:04:44;;;;;;;0.30;0.30;;;;;;;16.65;100.00;96862.28;4118192;28;20211;-44
2023/08/02 08:06:47;;;;;;;1.23;0.50;;;;;;;16.73;100.00;96862.25;4115070;28;20210;-44
2023/08/02 08:08:50;;;;;;;0.30;0.30;;;;;;;16.67;100.00;96873.81;4125811;28;20268;-44
2023/08/02 08:10:52;;;;;;;0.60;0.40;;;;;;;16.67;100.00;96858.06;4120802;28;20226;-44
2023/08/02 08:12:54;;;;;;;0.38;0.38;;;;;;;16.67;100.00;96852.53;4133850;28;20676;-45
2023/08/02 08:14:56;;;;;;;0.30;0.30;;;;;;;16.69;100.00;96847.47;4109847;28;20747;-44
2023/08/02 08:16:58;;;;;;;0.40;0.40;;;;;;;16.74;100.00;96852.84;4119480;28;20210;-44
2023/08/02 08:19:00;;;;;;;0.30;0.30;;;;;;;16.74;100.00;96847.31;4118413;28;20948;-44
2023/08/02 08:21:03;;;;;;;0.40;0.40;;;;;;;16.81;100.00;96842.09;4112118;28;20241;-44
2023/08/02 08:23:05;;;;;;;0.30;0.30;;;;;;;16.83;100.00;96833.47;4126056;28;20238;-44
2023/08/02 08:25:07;;;;;;;0.25;0.25;;;;;;;16.83;100.00;96845.31;4101125;28;20275;-45
2023/08/02 08:27:09;;;;;;;0.35;0.35;;;;;;;16.83;100.00;96845.31;4119244;28;20210;-43
2023/08/02 08:29:10;;;;;;;0.40;0.40;;;;;;;16.88;100.00;96831.31;4126231;28;20629;-44
2023/08/02 08:31:12;;;;;;;0.73;0.40;;;;;;;16.84;100.00;96830.34;4130578;28;20225;-44
2023/08/02 08:33:14;;;;;;;0.30;0.30;;;;;;;16.85;100.00;96831.19;4126825;28;20763;-45
2023/08/02 08:35:16;;;;;;;0.40;0.40;;;;;;;16.87;100.00;96829.72;4120483;28;20229;-44
2023/08/02 08:37:18;;;;;;;0.30;0.30;;;;;;;16.93;100.00;96826.41;4115335;28;20218;-44
2023/08/02 08:39:19;;;;;;;0.40;0.40;;;;;;;17.02;100.00;96826.38;4116091;28;20552;-45
2023/08/02 08:41:21;;;;;;;0.70;0.50;;;;;;;16.99;100.00;96816.00;4117765;28;20241;-44
2023/08/02 08:43:27;;;;;;;0.30;0.30;;;;;;;16.99;100.00;96814.03;4119405;28;20676;-44
2023/08/02 08:45:29;;;;;;;0.30;0.30;;;;;;;16.97;100.00;96801.69;4125943;28;20226;-45
2023/08/02 08:47:31;;;;;;;0.35;0.35;;;;;;;17.02;100.00;96804.28;4127132;28;20213;-44
2023/08/02 08:49:33;;;;;;;0.20;0.20;;;;;;;17.03;100.00;96800.38;4110906;28;20716;-45
2023/08/02 08:51:39;;;;;;;0.35;0.35;;;;;;;16.98;100.00;96797.81;4126370;28;20584;-46
2023/08/02 08:53:43;;;;;;;0.32;0.32;;;;;;;17.14;100.00;96807.16;4126240;28;20210;-44
2023/08/02 08:55:49;;;;;;;0.30;0.30;;;;;;;17.09;100.00;96799.84;4119664;28;20214;-45
2023/08/02 08:57:51;;;;;;;0.30;0.30;;;;;;;17.11;100.00;96796.78;4119926;28;20222;-45
2023/08/02 08:59:53;;;;;;;1.50;0.40;;;;;;;17.12;100.00;96792.84;4124046;28;20225;-44
2023/08/02 09:01:55;;;;;;;0.47;0.40;;;;;;;17.11;100.00;96794.00;4104965;28;20290;-44
2023/08/02 09:03:56;;;;;;;0.57;0.32;;;;;;;17.14;100.00;96790.56;4121166;28;20281;-44
2023/08/02 09:06:02;;;;;;;0.57;0.40;;;;;;;17.22;100.00;96786.94;4129386;28;20328;-45
2023/08/02 09:08:04;;;;;;;0.47;0.47;;;;;;;17.16;100.00;96793.78;4129764;28;20901;-44
2023/08/02 09:10:06;;;;;;;0.47;0.40;;;;;;;17.20;100.00;96790.03;4128687;28;20641;-44
2023/08/02 09:12:08;;;;;;;0.47;0.47;;;;;;;17.25;100.00;96780.75;4119805;28;20235;-44
2023/08/02 09:14:15;;;;;;;0.40;0.40;;;;;;;17.20;100.00;96772.66;4131336;28;20214;-44
2023/08/02 09:16:17;;;;;;;12.23;0.50;;;;;;;17.25;100.00;96775.22;4122192;28;20301;-44
2023/08/02 09:18:33;;;;;;;0.43;0.40;;;;;;;17.33;100.00;96779.88;4123624;28;20386;-45
2023/08/02 09:20:35;;;;;;;6.15;0.60;;;;;;;17.35;100.00;96772.88;4111353;28;20229;-44
2023/08/02 09:22:37;;;;;;;1.27;0.65;;;;;;;17.37;100.00;96778.06;4129924;28;20925;-44
2023/08/02 09:24:40;;;;;;;1.00;0.40;;;;;;;17.39;100.00;96764.75;4124125;28;20213;-45
2023/08/02 09:26:42;;;;;;;0.60;0.60;;;;;;;17.43;100.00;96777.56;4107987;28;20217;-47
2023/08/02 09:28:59;;;;;;;1.33;0.80;;;;;;;17.43;100.00;96763.72;4108248;28;20577;-44